sensor_id;sensor_type;location;lat;lon;timestamp;pressure;altitude;pressure_sealevel;temperature
15575;BMP180;7888;46.748;8.102;2023-06-14T00:01:51;93523.00;;;23.30
15575;BMP180;7888;46.748;8.102;2023-06-14T00:04:17;93518.00;;;23.30
15575;BMP180;7888;46.748;8.102;2023-06-14T00:06:44;93521.00;;;23.30
15575;BMP180;7888;46.748;8.102;2023-06-14T00:09:11;93517.00;;;23.20
15575;BMP180;7888;46.748;8.102;2023-06-14T00:11:43;93524.00;;;23.20
15575;BMP180;7888;46.748;8.102;2023-06-14T00:14:10;93527.00;;;23.10
15575;BMP180;7888;46.748;8.102;2023-06-14T00:16:36;93526.00;;;23.10
15575;BMP180;7888;46.748;8.102;2023-06-14T00:19:02;93523.00;;;23.00
15575;BMP180;7888;46.748;8.102;2023-06-14T00:21:30;93512.00;;;23.00
15575;BMP180;7888;46.748;8.102;2023-06-14T00:23:57;93520.00;;;22.90
15575;BMP180;7888;46.748;8.102;2023-06-14T00:26:23;93509.00;;;22.90
15575;BMP180;7888;46.748;8.102;2023-06-14T00:28:49;93522.00;;;22.80
15575;BMP180;7888;46.748;8.102;2023-06-14T00:31:15;93517.00;;;22.80
15575;BMP180;7888;46.748;8.102;2023-06-14T00:33:41;93517.00;;;22.70
15575;BMP180;7888;46.748;8.102;2023-06-14T00:36:07;93513.00;;;22.70
15575;BMP180;7888;46.748;8.102;2023-06-14T00:38:32;93515.00;;;22.70
15575;BMP180;7888;46.748;8.102;2023-06-14T00:40:58;93517.00;;;22.60
15575;BMP180;7888;46.748;8.102;2023-06-14T00:43:24;93519.00;;;22.60
15575;BMP180;7888;46.748;8.102;2023-06-14T00:45:50;93514.00;;;22.60
15575;BMP180;7888;46.748;8.102;2023-06-14T00:48:17;93513.00;;;22.50
15575;BMP180;7888;46.748;8.102;2023-06-14T00:50:45;93514.00;;;22.50
15575;BMP180;7888;46.748;8.102;2023-06-14T00:53:12;93515.00;;;22.40
15575;BMP180;7888;46.748;8.102;2023-06-14T00:55:41;93527.00;;;22.40
15575;BMP180;7888;46.748;8.102;2023-06-14T00:58:07;93516.00;;;22.40
15575;BMP180;7888;46.748;8.102;2023-06-14T01:00:34;93523.00;;;22.30
15575;BMP180;7888;46.748;8.102;2023-06-14T01:03:00;93517.00;;;22.30
15575;BMP180;7888;46.748;8.102;2023-06-14T01:05:27;93524.00;;;22.30
15575;BMP180;7888;46.748;8.102;2023-06-14T01:08:13;93524.00;;;22.20
15575;BMP180;7888;46.748;8.102;2023-06-14T01:13:39;93527.00;;;22.10
15575;BMP180;7888;46.748;8.102;2023-06-14T01:16:08;93522.00;;;22.10
15575;BMP180;7888;46.748;8.102;2023-06-14T01:18:34;93522.00;;;22.00
15575;BMP180;7888;46.748;8.102;2023-06-14T01:21:00;93516.00;;;22.00
15575;BMP180;7888;46.748;8.102;2023-06-14T01:23:32;93519.00;;;22.00
15575;BMP180;7888;46.748;8.102;2023-06-14T01:26:00;93523.00;;;22.00
15575;BMP180;7888;46.748;8.102;2023-06-14T01:28:29;93498.00;;;21.90
15575;BMP180;7888;46.748;8.102;2023-06-14T01:31:02;93517.00;;;21.90
15575;BMP180;7888;46.748;8.102;2023-06-14T01:33:34;93514.00;;;21.80
15575;BMP180;7888;46.748;8.102;2023-06-14T01:36:02;93510.00;;;21.80
15575;BMP180;7888;46.748;8.102;2023-06-14T01:38:30;93513.00;;;21.80
15575;BMP180;7888;46.748;8.102;2023-06-14T01:40:59;93493.00;;;21.70
15575;BMP180;7888;46.748;8.102;2023-06-14T01:43:26;93511.00;;;21.80
15575;BMP180;7888;46.748;8.102;2023-06-14T01:45:54;93510.00;;;21.70
15575;BMP180;7888;46.748;8.102;2023-06-14T01:48:21;93512.00;;;21.70
15575;BMP180;7888;46.748;8.102;2023-06-14T01:50:49;93514.00;;;21.70
15575;BMP180;7888;46.748;8.102;2023-06-14T01:53:16;93511.00;;;21.60
15575;BMP180;7888;46.748;8.102;2023-06-14T01:55:42;93506.00;;;21.60
15575;BMP180;7888;46.748;8.102;2023-06-14T01:58:10;93516.00;;;21.50
15575;BMP180;7888;46.748;8.102;2023-06-14T02:00:36;93505.00;;;21.50
15575;BMP180;7888;46.748;8.102;2023-06-14T02:03:02;93505.00;;;21.40
15575;BMP180;7888;46.748;8.102;2023-06-14T02:05:31;93503.00;;;21.40
15575;BMP180;7888;46.748;8.102;2023-06-14T02:07:57;93498.00;;;21.40
15575;BMP180;7888;46.748;8.102;2023-06-14T02:10:23;93495.00;;;21.30
15575;BMP180;7888;46.748;8.102;2023-06-14T02:12:48;93509.00;;;21.30
15575;BMP180;7888;46.748;8.102;2023-06-14T02:15:15;93503.00;;;21.30
15575;BMP180;7888;46.748;8.102;2023-06-14T02:17:46;93489.00;;;21.20
15575;BMP180;7888;46.748;8.102;2023-06-14T02:20:17;93502.00;;;21.20
15575;BMP180;7888;46.748;8.102;2023-06-14T02:22:44;93507.00;;;21.20
15575;BMP180;7888;46.748;8.102;2023-06-14T02:25:10;93500.00;;;21.20
15575;BMP180;7888;46.748;8.102;2023-06-14T02:27:36;93509.00;;;21.10
15575;BMP180;7888;46.748;8.102;2023-06-14T02:30:02;93505.00;;;21.10
15575;BMP180;7888;46.748;8.102;2023-06-14T02:32:29;93505.00;;;21.10
15575;BMP180;7888;46.748;8.102;2023-06-14T02:34:54;93509.00;;;21.10
15575;BMP180;7888;46.748;8.102;2023-06-14T02:37:20;93511.00;;;21.10
15575;BMP180;7888;46.748;8.102;2023-06-14T02:39:46;93511.00;;;21.00
15575;BMP180;7888;46.748;8.102;2023-06-14T02:42:12;93521.00;;;21.00
15575;BMP180;7888;46.748;8.102;2023-06-14T02:44:38;93514.00;;;21.00
15575;BMP180;7888;46.748;8.102;2023-06-14T02:47:04;93521.00;;;21.00
15575;BMP180;7888;46.748;8.102;2023-06-14T02:49:30;93510.00;;;21.00
15575;BMP180;7888;46.748;8.102;2023-06-14T02:51:56;93512.00;;;21.00
15575;BMP180;7888;46.748;8.102;2023-06-14T02:54:22;93516.00;;;20.90
15575;BMP180;7888;46.748;8.102;2023-06-14T02:56:48;93509.00;;;20.90
15575;BMP180;7888;46.748;8.102;2023-06-14T02:59:13;93529.00;;;20.90
15575;BMP180;7888;46.748;8.102;2023-06-14T03:01:41;93526.00;;;20.80
15575;BMP180;7888;46.748;8.102;2023-06-14T03:04:08;93532.00;;;20.80
15575;BMP180;7888;46.748;8.102;2023-06-14T03:06:34;93531.00;;;20.80
15575;BMP180;7888;46.748;8.102;2023-06-14T03:09:00;93534.00;;;20.70
15575;BMP180;7888;46.748;8.102;2023-06-14T03:11:30;93523.00;;;20.70
15575;BMP180;7888;46.748;8.102;2023-06-14T03:13:56;93519.00;;;20.70
15575;BMP180;7888;46.748;8.102;2023-06-14T03:16:22;93531.00;;;20.70
15575;BMP180;7888;46.748;8.102;2023-06-14T03:18:52;93529.00;;;20.60
15575;BMP180;7888;46.748;8.102;2023-06-14T03:21:21;93535.00;;;20.60
15575;BMP180;7888;46.748;8.102;2023-06-14T03:23:48;93527.00;;;20.60
15575;BMP180;7888;46.748;8.102;2023-06-14T03:26:15;93529.00;;;20.60
15575;BMP180;7888;46.748;8.102;2023-06-14T03:28:47;93532.00;;;20.50
15575;BMP180;7888;46.748;8.102;2023-06-14T03:31:14;93531.00;;;20.50
15575;BMP180;7888;46.748;8.102;2023-06-14T03:33:40;93539.00;;;20.50
15575;BMP180;7888;46.748;8.102;2023-06-14T03:36:06;93536.00;;;20.50
15575;BMP180;7888;46.748;8.102;2023-06-14T03:38:32;93531.00;;;20.40
15575;BMP180;7888;46.748;8.102;2023-06-14T03:40:58;93535.00;;;20.40
15575;BMP180;7888;46.748;8.102;2023-06-14T03:43:24;93535.00;;;20.40
15575;BMP180;7888;46.748;8.102;2023-06-14T03:45:50;93531.00;;;20.40
15575;BMP180;7888;46.748;8.102;2023-06-14T03:48:16;93548.00;;;20.40
15575;BMP180;7888;46.748;8.102;2023-06-14T03:50:42;93544.00;;;20.30
15575;BMP180;7888;46.748;8.102;2023-06-14T03:53:09;93529.00;;;20.30
15575;BMP180;7888;46.748;8.102;2023-06-14T03:55:35;93546.00;;;20.30
15575;BMP180;7888;46.748;8.102;2023-06-14T03:58:00;93553.00;;;20.30
15575;BMP180;7888;46.748;8.102;2023-06-14T04:00:26;93549.00;;;20.30
15575;BMP180;7888;46.748;8.102;2023-06-14T04:02:53;93556.00;;;20.30
15575;BMP180;7888;46.748;8.102;2023-06-14T04:05:20;93553.00;;;20.20
15575;BMP180;7888;46.748;8.102;2023-06-14T04:07:46;93553.00;;;20.20
15575;BMP180;7888;46.748;8.102;2023-06-14T04:10:15;93563.00;;;20.20
15575;BMP180;7888;46.748;8.102;2023-06-14T04:12:42;93558.00;;;20.20
15575;BMP180;7888;46.748;8.102;2023-06-14T04:15:09;93557.00;;;20.20
15575;BMP180;7888;46.748;8.102;2023-06-14T04:17:37;93561.00;;;20.20
15575;BMP180;7888;46.748;8.102;2023-06-14T04:20:05;93574.00;;;20.20
15575;BMP180;7888;46.748;8.102;2023-06-14T04:22:32;93572.00;;;20.20
15575;BMP180;7888;46.748;8.102;2023-06-14T04:24:59;93579.00;;;20.20
15575;BMP180;7888;46.748;8.102;2023-06-14T04:27:27;93569.00;;;20.20
15575;BMP180;7888;46.748;8.102;2023-06-14T04:29:56;93566.00;;;20.20
15575;BMP180;7888;46.748;8.102;2023-06-14T04:32:27;93573.00;;;20.20
15575;BMP180;7888;46.748;8.102;2023-06-14T04:34:56;93575.00;;;20.10
15575;BMP180;7888;46.748;8.102;2023-06-14T04:37:23;93580.00;;;20.20
15575;BMP180;7888;46.748;8.102;2023-06-14T04:39:49;93572.00;;;20.20
15575;BMP180;7888;46.748;8.102;2023-06-14T04:42:16;93587.00;;;20.20
15575;BMP180;7888;46.748;8.102;2023-06-14T04:44:42;93568.00;;;20.20
15575;BMP180;7888;46.748;8.102;2023-06-14T04:47:10;93589.00;;;20.20
15575;BMP180;7888;46.748;8.102;2023-06-14T04:49:36;93588.00;;;20.20
15575;BMP180;7888;46.748;8.102;2023-06-14T04:52:02;93594.00;;;20.20
15575;BMP180;7888;46.748;8.102;2023-06-14T04:54:29;93599.00;;;20.20
15575;BMP180;7888;46.748;8.102;2023-06-14T04:56:57;93602.00;;;20.30
15575;BMP180;7888;46.748;8.102;2023-06-14T04:59:23;93611.00;;;20.30
15575;BMP180;7888;46.748;8.102;2023-06-14T05:01:52;93602.00;;;20.30
15575;BMP180;7888;46.748;8.102;2023-06-14T05:04:19;93601.00;;;20.30
15575;BMP180;7888;46.748;8.102;2023-06-14T05:06:46;93610.00;;;20.30
15575;BMP180;7888;46.748;8.102;2023-06-14T05:09:15;93595.00;;;20.30
15575;BMP180;7888;46.748;8.102;2023-06-14T05:11:42;93613.00;;;20.40
15575;BMP180;7888;46.748;8.102;2023-06-14T05:14:11;93609.00;;;20.40
15575;BMP180;7888;46.748;8.102;2023-06-14T05:16:36;93596.00;;;20.40
15575;BMP180;7888;46.748;8.102;2023-06-14T05:19:03;93607.00;;;20.40
15575;BMP180;7888;46.748;8.102;2023-06-14T05:21:30;93603.00;;;20.40
15575;BMP180;7888;46.748;8.102;2023-06-14T05:23:56;93614.00;;;20.50
15575;BMP180;7888;46.748;8.102;2023-06-14T05:26:22;93603.00;;;20.50
15575;BMP180;7888;46.748;8.102;2023-06-14T05:28:57;93607.00;;;20.50
15575;BMP180;7888;46.748;8.102;2023-06-14T05:31:26;93601.00;;;20.60
15575;BMP180;7888;46.748;8.102;2023-06-14T05:33:53;93615.00;;;20.60
15575;BMP180;7888;46.748;8.102;2023-06-14T05:36:22;93615.00;;;20.60
15575;BMP180;7888;46.748;8.102;2023-06-14T05:38:49;93610.00;;;20.70
15575;BMP180;7888;46.748;8.102;2023-06-14T05:41:16;93617.00;;;20.70
15575;BMP180;7888;46.748;8.102;2023-06-14T05:43:42;93614.00;;;20.80
15575;BMP180;7888;46.748;8.102;2023-06-14T05:46:08;93616.00;;;20.80
15575;BMP180;7888;46.748;8.102;2023-06-14T05:48:34;93618.00;;;20.80
15575;BMP180;7888;46.748;8.102;2023-06-14T05:50:59;93617.00;;;20.90
15575;BMP180;7888;46.748;8.102;2023-06-14T05:53:26;93619.00;;;20.90
15575;BMP180;7888;46.748;8.102;2023-06-14T05:55:51;93616.00;;;21.00
15575;BMP180;7888;46.748;8.102;2023-06-14T05:58:19;93628.00;;;21.10
15575;BMP180;7888;46.748;8.102;2023-06-14T06:00:45;93617.00;;;21.10
15575;BMP180;7888;46.748;8.102;2023-06-14T06:03:11;93627.00;;;21.20
15575;BMP180;7888;46.748;8.102;2023-06-14T06:05:39;93619.00;;;21.20
15575;BMP180;7888;46.748;8.102;2023-06-14T06:08:05;93614.00;;;21.30
15575;BMP180;7888;46.748;8.102;2023-06-14T06:10:31;93624.00;;;21.30
15575;BMP180;7888;46.748;8.102;2023-06-14T06:12:57;93631.00;;;21.40
15575;BMP180;7888;46.748;8.102;2023-06-14T06:15:22;93631.00;;;21.40
15575;BMP180;7888;46.748;8.102;2023-06-14T06:17:48;93623.00;;;21.40
15575;BMP180;7888;46.748;8.102;2023-06-14T06:20:14;93625.00;;;21.50
15575;BMP180;7888;46.748;8.102;2023-06-14T06:22:40;93617.00;;;21.50
15575;BMP180;7888;46.748;8.102;2023-06-14T06:25:06;93631.00;;;21.50
15575;BMP180;7888;46.748;8.102;2023-06-14T06:27:33;93625.00;;;21.60
15575;BMP180;7888;46.748;8.102;2023-06-14T06:29:58;93633.00;;;21.60
15575;BMP180;7888;46.748;8.102;2023-06-14T06:32:24;93624.00;;;21.70
15575;BMP180;7888;46.748;8.102;2023-06-14T06:34:50;93630.00;;;21.70
15575;BMP180;7888;46.748;8.102;2023-06-14T06:37:17;93636.00;;;21.70
15575;BMP180;7888;46.748;8.102;2023-06-14T06:39:43;93637.00;;;21.80
15575;BMP180;7888;46.748;8.102;2023-06-14T06:42:09;93638.00;;;21.80
15575;BMP180;7888;46.748;8.102;2023-06-14T06:44:36;93639.00;;;21.80
15575;BMP180;7888;46.748;8.102;2023-06-14T06:47:01;93634.00;;;21.90
15575;BMP180;7888;46.748;8.102;2023-06-14T06:49:28;93640.00;;;21.90
15575;BMP180;7888;46.748;8.102;2023-06-14T06:52:04;93632.00;;;21.90
15575;BMP180;7888;46.748;8.102;2023-06-14T06:54:31;93642.00;;;22.00
15575;BMP180;7888;46.748;8.102;2023-06-14T06:56:57;93644.00;;;22.10
15575;BMP180;7888;46.748;8.102;2023-06-14T06:59:23;93641.00;;;22.10
15575;BMP180;7888;46.748;8.102;2023-06-14T07:01:49;93643.00;;;22.20
15575;BMP180;7888;46.748;8.102;2023-06-14T07:04:15;93638.00;;;22.30
15575;BMP180;7888;46.748;8.102;2023-06-14T07:06:42;93639.00;;;22.40
15575;BMP180;7888;46.748;8.102;2023-06-14T07:09:08;93648.00;;;22.50
15575;BMP180;7888;46.748;8.102;2023-06-14T07:11:42;93656.00;;;22.50
15575;BMP180;7888;46.748;8.102;2023-06-14T07:14:08;93651.00;;;22.60
15575;BMP180;7888;46.748;8.102;2023-06-14T07:16:34;93653.00;;;22.70
15575;BMP180;7888;46.748;8.102;2023-06-14T07:19:00;93655.00;;;22.80
15575;BMP180;7888;46.748;8.102;2023-06-14T07:21:26;93651.00;;;22.80
15575;BMP180;7888;46.748;8.102;2023-06-14T07:23:56;93660.00;;;22.90
15575;BMP180;7888;46.748;8.102;2023-06-14T07:26:22;93663.00;;;23.00
15575;BMP180;7888;46.748;8.102;2023-06-14T07:28:48;93657.00;;;23.00
15575;BMP180;7888;46.748;8.102;2023-06-14T07:31:15;93653.00;;;23.10
15575;BMP180;7888;46.748;8.102;2023-06-14T07:33:42;93651.00;;;23.10
15575;BMP180;7888;46.748;8.102;2023-06-14T07:36:08;93651.00;;;23.20
15575;BMP180;7888;46.748;8.102;2023-06-14T07:38:34;93658.00;;;23.30
15575;BMP180;7888;46.748;8.102;2023-06-14T07:41:00;93660.00;;;23.40
15575;BMP180;7888;46.748;8.102;2023-06-14T07:43:26;93666.00;;;23.50
15575;BMP180;7888;46.748;8.102;2023-06-14T07:45:52;93658.00;;;23.60
15575;BMP180;7888;46.748;8.102;2023-06-14T07:48:18;93669.00;;;23.80
15575;BMP180;7888;46.748;8.102;2023-06-14T07:50:44;93671.00;;;23.90
15575;BMP180;7888;46.748;8.102;2023-06-14T07:53:10;93676.00;;;24.00
15575;BMP180;7888;46.748;8.102;2023-06-14T07:55:36;93671.00;;;24.20
15575;BMP180;7888;46.748;8.102;2023-06-14T07:58:09;93666.00;;;24.30
15575;BMP180;7888;46.748;8.102;2023-06-14T08:00:34;93666.00;;;24.50
15575;BMP180;7888;46.748;8.102;2023-06-14T08:03:00;93668.00;;;24.60
15575;BMP180;7888;46.748;8.102;2023-06-14T08:05:27;93656.00;;;24.80
15575;BMP180;7888;46.748;8.102;2023-06-14T08:07:54;93659.00;;;24.90
15575;BMP180;7888;46.748;8.102;2023-06-14T08:10:22;93653.00;;;25.00
15575;BMP180;7888;46.748;8.102;2023-06-14T08:12:48;93643.00;;;25.10
15575;BMP180;7888;46.748;8.102;2023-06-14T08:15:16;93656.00;;;25.20
15575;BMP180;7888;46.748;8.102;2023-06-14T08:17:43;93649.00;;;25.30
15575;BMP180;7888;46.748;8.102;2023-06-14T08:20:10;93649.00;;;25.40
15575;BMP180;7888;46.748;8.102;2023-06-14T08:22:36;93651.00;;;25.50
15575;BMP180;7888;46.748;8.102;2023-06-14T08:25:03;93651.00;;;25.70
15575;BMP180;7888;46.748;8.102;2023-06-14T08:27:30;93656.00;;;25.80
15575;BMP180;7888;46.748;8.102;2023-06-14T08:29:56;93655.00;;;25.90
15575;BMP180;7888;46.748;8.102;2023-06-14T08:32:22;93655.00;;;26.00
15575;BMP180;7888;46.748;8.102;2023-06-14T08:34:48;93657.00;;;26.10
15575;BMP180;7888;46.748;8.102;2023-06-14T08:37:14;93672.00;;;26.30
15575;BMP180;7888;46.748;8.102;2023-06-14T08:39:40;93664.00;;;26.30
15575;BMP180;7888;46.748;8.102;2023-06-14T08:42:08;93664.00;;;26.40
15575;BMP180;7888;46.748;8.102;2023-06-14T08:44:34;93660.00;;;26.50
15575;BMP180;7888;46.748;8.102;2023-06-14T08:47:00;93648.00;;;26.60
15575;BMP180;7888;46.748;8.102;2023-06-14T08:49:29;93666.00;;;26.70
15575;BMP180;7888;46.748;8.102;2023-06-14T08:52:00;93667.00;;;26.80
15575;BMP180;7888;46.748;8.102;2023-06-14T08:54:28;93675.00;;;26.90
15575;BMP180;7888;46.748;8.102;2023-06-14T08:57:00;93667.00;;;27.00
15575;BMP180;7888;46.748;8.102;2023-06-14T08:59:27;93660.00;;;27.00
15575;BMP180;7888;46.748;8.102;2023-06-14T09:01:54;93659.00;;;27.10
15575;BMP180;7888;46.748;8.102;2023-06-14T09:04:26;93664.00;;;27.20
15575;BMP180;7888;46.748;8.102;2023-06-14T09:06:55;93671.00;;;27.20
15575;BMP180;7888;46.748;8.102;2023-06-14T09:09:22;93676.00;;;27.30
15575;BMP180;7888;46.748;8.102;2023-06-14T09:11:54;93671.00;;;27.30
15575;BMP180;7888;46.748;8.102;2023-06-14T09:14:23;93671.00;;;27.40
15575;BMP180;7888;46.748;8.102;2023-06-14T09:16:54;93663.00;;;27.50
15575;BMP180;7888;46.748;8.102;2023-06-14T09:19:26;93671.00;;;27.60
15575;BMP180;7888;46.748;8.102;2023-06-14T09:21:52;93672.00;;;27.80
15575;BMP180;7888;46.748;8.102;2023-06-14T09:24:19;93679.00;;;27.90
15575;BMP180;7888;46.748;8.102;2023-06-14T09:26:48;93674.00;;;27.90
15575;BMP180;7888;46.748;8.102;2023-06-14T09:29:16;93678.00;;;28.00
15575;BMP180;7888;46.748;8.102;2023-06-14T09:31:43;93678.00;;;28.10
15575;BMP180;7888;46.748;8.102;2023-06-14T09:34:09;93672.00;;;28.20
15575;BMP180;7888;46.748;8.102;2023-06-14T09:36:35;93682.00;;;28.30
15575;BMP180;7888;46.748;8.102;2023-06-14T09:39:03;93685.00;;;28.30
15575;BMP180;7888;46.748;8.102;2023-06-14T09:41:40;93684.00;;;28.30
15575;BMP180;7888;46.748;8.102;2023-06-14T09:44:09;93687.00;;;28.50
15575;BMP180;7888;46.748;8.102;2023-06-14T09:46:37;93674.00;;;28.50
15575;BMP180;7888;46.748;8.102;2023-06-14T09:49:04;93689.00;;;28.60
15575;BMP180;7888;46.748;8.102;2023-06-14T09:51:30;93686.00;;;28.70
15575;BMP180;7888;46.748;8.102;2023-06-14T09:54:02;93686.00;;;28.70
15575;BMP180;7888;46.748;8.102;2023-06-14T09:56:36;93679.00;;;28.80
15575;BMP180;7888;46.748;8.102;2023-06-14T09:59:05;93691.00;;;28.90
15575;BMP180;7888;46.748;8.102;2023-06-14T10:01:34;93685.00;;;28.90
15575;BMP180;7888;46.748;8.102;2023-06-14T10:04:02;93682.00;;;28.90
15575;BMP180;7888;46.748;8.102;2023-06-14T10:06:29;93680.00;;;29.00
15575;BMP180;7888;46.748;8.102;2023-06-14T10:08:59;93681.00;;;29.10
15575;BMP180;7888;46.748;8.102;2023-06-14T10:11:28;93692.00;;;29.10
15575;BMP180;7888;46.748;8.102;2023-06-14T10:13:56;93676.00;;;29.10
15575;BMP180;7888;46.748;8.102;2023-06-14T10:17:03;93679.00;;;29.20
15575;BMP180;7888;46.748;8.102;2023-06-14T10:19:48;93681.00;;;29.20
15575;BMP180;7888;46.748;8.102;2023-06-14T10:22:26;93687.00;;;29.40
15575;BMP180;7888;46.748;8.102;2023-06-14T10:24:56;93675.00;;;29.50
15575;BMP180;7888;46.748;8.102;2023-06-14T10:27:21;93682.00;;;29.60
15575;BMP180;7888;46.748;8.102;2023-06-14T10:32:27;93678.00;;;29.70
15575;BMP180;7888;46.748;8.102;2023-06-14T10:35:00;93676.00;;;29.70
15575;BMP180;7888;46.748;8.102;2023-06-14T10:37:27;93676.00;;;29.80
15575;BMP180;7888;46.748;8.102;2023-06-14T10:39:53;93660.00;;;29.80
15575;BMP180;7888;46.748;8.102;2023-06-14T10:42:19;93665.00;;;29.90
15575;BMP180;7888;46.748;8.102;2023-06-14T10:44:53;93664.00;;;29.90
15575;BMP180;7888;46.748;8.102;2023-06-14T10:47:25;93668.00;;;30.10
15575;BMP180;7888;46.748;8.102;2023-06-14T10:52:29;93658.00;;;30.20
15575;BMP180;7888;46.748;8.102;2023-06-14T10:55:07;93655.00;;;30.10
15575;BMP180;7888;46.748;8.102;2023-06-14T10:57:53;93653.00;;;30.20
15575;BMP180;7888;46.748;8.102;2023-06-14T11:00:25;93669.00;;;30.30
15575;BMP180;7888;46.748;8.102;2023-06-14T11:03:18;93664.00;;;30.20
15575;BMP180;7888;46.748;8.102;2023-06-14T11:05:53;93672.00;;;30.30
15575;BMP180;7888;46.748;8.102;2023-06-14T11:08:59;93669.00;;;30.30
15575;BMP180;7888;46.748;8.102;2023-06-14T11:11:32;93660.00;;;30.50
15575;BMP180;7888;46.748;8.102;2023-06-14T11:14:01;93657.00;;;30.60
15575;BMP180;7888;46.748;8.102;2023-06-14T11:16:28;93655.00;;;30.70
15575;BMP180;7888;46.748;8.102;2023-06-14T11:18:54;93657.00;;;30.70
15575;BMP180;7888;46.748;8.102;2023-06-14T11:21:20;93658.00;;;30.80
15575;BMP180;7888;46.748;8.102;2023-06-14T11:23:51;93656.00;;;30.80
15575;BMP180;7888;46.748;8.102;2023-06-14T11:26:28;93656.00;;;30.90
15575;BMP180;7888;46.748;8.102;2023-06-14T11:28:57;93668.00;;;31.00
15575;BMP180;7888;46.748;8.102;2023-06-14T11:31:23;93660.00;;;31.00
15575;BMP180;7888;46.748;8.102;2023-06-14T11:33:50;93653.00;;;30.90
15575;BMP180;7888;46.748;8.102;2023-06-14T11:36:17;93645.00;;;30.90
15575;BMP180;7888;46.748;8.102;2023-06-14T11:38:43;93647.00;;;31.00
15575;BMP180;7888;46.748;8.102;2023-06-14T11:41:09;93649.00;;;31.10
15575;BMP180;7888;46.748;8.102;2023-06-14T11:43:35;93644.00;;;31.10
15575;BMP180;7888;46.748;8.102;2023-06-14T11:46:01;93643.00;;;31.10
15575;BMP180;7888;46.748;8.102;2023-06-14T11:48:38;93648.00;;;31.20
15575;BMP180;7888;46.748;8.102;2023-06-14T11:51:04;93645.00;;;31.30
15575;BMP180;7888;46.748;8.102;2023-06-14T11:53:31;93645.00;;;31.40
15575;BMP180;7888;46.748;8.102;2023-06-14T11:55:58;93638.00;;;31.40
15575;BMP180;7888;46.748;8.102;2023-06-14T11:58:23;93643.00;;;31.50
15575;BMP180;7888;46.748;8.102;2023-06-14T12:00:50;93647.00;;;31.50
15575;BMP180;7888;46.748;8.102;2023-06-14T12:03:16;93642.00;;;31.50
15575;BMP180;7888;46.748;8.102;2023-06-14T12:05:42;93644.00;;;31.70
15575;BMP180;7888;46.748;8.102;2023-06-14T12:08:09;93647.00;;;31.80
15575;BMP180;7888;46.748;8.102;2023-06-14T12:10:41;93640.00;;;31.80
15575;BMP180;7888;46.748;8.102;2023-06-14T12:13:09;93636.00;;;31.90
15575;BMP180;7888;46.748;8.102;2023-06-14T12:15:35;93626.00;;;32.00
15575;BMP180;7888;46.748;8.102;2023-06-14T12:18:05;93641.00;;;32.00
15575;BMP180;7888;46.748;8.102;2023-06-14T12:20:32;93630.00;;;32.00
15575;BMP180;7888;46.748;8.102;2023-06-14T12:23:03;93620.00;;;32.00
15575;BMP180;7888;46.748;8.102;2023-06-14T12:25:35;93630.00;;;32.00
15575;BMP180;7888;46.748;8.102;2023-06-14T12:28:08;93630.00;;;32.10
15575;BMP180;7888;46.748;8.102;2023-06-14T12:30:36;93630.00;;;32.20
15575;BMP180;7888;46.748;8.102;2023-06-14T12:33:03;93634.00;;;32.30
15575;BMP180;7888;46.748;8.102;2023-06-14T12:35:29;93630.00;;;32.30
15575;BMP180;7888;46.748;8.102;2023-06-14T12:37:55;93617.00;;;32.20
15575;BMP180;7888;46.748;8.102;2023-06-14T12:40:22;93607.00;;;32.20
15575;BMP180;7888;46.748;8.102;2023-06-14T12:42:48;93622.00;;;32.10
15575;BMP180;7888;46.748;8.102;2023-06-14T12:45:14;93613.00;;;32.10
15575;BMP180;7888;46.748;8.102;2023-06-14T12:47:40;93629.00;;;32.10
15575;BMP180;7888;46.748;8.102;2023-06-14T12:50:06;93624.00;;;32.20
15575;BMP180;7888;46.748;8.102;2023-06-14T12:52:34;93622.00;;;32.20
15575;BMP180;7888;46.748;8.102;2023-06-14T12:55:04;93624.00;;;32.30
15575;BMP180;7888;46.748;8.102;2023-06-14T12:57:30;93638.00;;;32.40
15575;BMP180;7888;46.748;8.102;2023-06-14T12:59:56;93621.00;;;32.30
15575;BMP180;7888;46.748;8.102;2023-06-14T13:02:21;93632.00;;;32.30
15575;BMP180;7888;46.748;8.102;2023-06-14T13:04:49;93633.00;;;32.30
15575;BMP180;7888;46.748;8.102;2023-06-14T13:07:15;93636.00;;;32.30
15575;BMP180;7888;46.748;8.102;2023-06-14T13:09:41;93629.00;;;32.20
15575;BMP180;7888;46.748;8.102;2023-06-14T13:12:10;93641.00;;;32.10
15575;BMP180;7888;46.748;8.102;2023-06-14T13:14:40;93626.00;;;32.10
15575;BMP180;7888;46.748;8.102;2023-06-14T13:17:08;93614.00;;;32.10
15575;BMP180;7888;46.748;8.102;2023-06-14T13:19:35;93627.00;;;32.20
15575;BMP180;7888;46.748;8.102;2023-06-14T13:22:01;93628.00;;;32.30
15575;BMP180;7888;46.748;8.102;2023-06-14T13:24:27;93630.00;;;32.40
15575;BMP180;7888;46.748;8.102;2023-06-14T13:26:56;93629.00;;;32.40
15575;BMP180;7888;46.748;8.102;2023-06-14T13:29:23;93617.00;;;32.50
15575;BMP180;7888;46.748;8.102;2023-06-14T13:31:50;93630.00;;;32.40
15575;BMP180;7888;46.748;8.102;2023-06-14T13:34:16;93624.00;;;32.40
15575;BMP180;7888;46.748;8.102;2023-06-14T13:36:42;93619.00;;;32.40
15575;BMP180;7888;46.748;8.102;2023-06-14T13:39:08;93618.00;;;32.40
15575;BMP180;7888;46.748;8.102;2023-06-14T13:41:33;93627.00;;;32.40
15575;BMP180;7888;46.748;8.102;2023-06-14T13:44:01;93604.00;;;32.50
15575;BMP180;7888;46.748;8.102;2023-06-14T13:46:30;93615.00;;;32.50
15575;BMP180;7888;46.748;8.102;2023-06-14T13:48:56;93629.00;;;32.50
15575;BMP180;7888;46.748;8.102;2023-06-14T13:51:23;93623.00;;;32.50
15575;BMP180;7888;46.748;8.102;2023-06-14T13:53:49;93631.00;;;32.60
15575;BMP180;7888;46.748;8.102;2023-06-14T13:56:16;93624.00;;;32.60
15575;BMP180;7888;46.748;8.102;2023-06-14T13:58:43;93619.00;;;32.60
15575;BMP180;7888;46.748;8.102;2023-06-14T14:01:09;93628.00;;;32.50
15575;BMP180;7888;46.748;8.102;2023-06-14T14:03:36;93628.00;;;32.50
15575;BMP180;7888;46.748;8.102;2023-06-14T14:06:03;93630.00;;;32.50
15575;BMP180;7888;46.748;8.102;2023-06-14T14:08:29;93640.00;;;32.50
15575;BMP180;7888;46.748;8.102;2023-06-14T14:10:55;93631.00;;;32.60
15575;BMP180;7888;46.748;8.102;2023-06-14T14:13:22;93645.00;;;32.60
15575;BMP180;7888;46.748;8.102;2023-06-14T14:15:47;93635.00;;;32.60
15575;BMP180;7888;46.748;8.102;2023-06-14T14:18:14;93650.00;;;32.60
15575;BMP180;7888;46.748;8.102;2023-06-14T14:20:41;93637.00;;;32.60
15575;BMP180;7888;46.748;8.102;2023-06-14T14:23:06;93639.00;;;32.70
15575;BMP180;7888;46.748;8.102;2023-06-14T14:25:32;93643.00;;;32.80
15575;BMP180;7888;46.748;8.102;2023-06-14T14:27:58;93639.00;;;32.90
15575;BMP180;7888;46.748;8.102;2023-06-14T14:30:24;93633.00;;;32.90
15575;BMP180;7888;46.748;8.102;2023-06-14T14:32:50;93640.00;;;32.90